createdAt,value
2022-07-31T00:00:45.721Z,16.50
2022-07-31T00:03:12.700Z,16.40
2022-07-31T00:05:41.717Z,16.30
2022-07-31T00:08:11.687Z,16.30
2022-07-31T00:10:38.815Z,16.20
2022-07-31T00:13:08.012Z,16.20
2022-07-31T00:15:37.305Z,16.10
2022-07-31T00:18:06.433Z,16.10
2022-07-31T00:20:33.265Z,16.20
2022-07-31T00:23:00.134Z,16.20
2022-07-31T00:25:30.726Z,16.10
2022-07-31T00:28:02.405Z,16.10
2022-07-31T00:30:33.977Z,16.20
2022-07-31T00:33:00.790Z,16.20
2022-07-31T00:35:27.581Z,16.20
2022-07-31T00:38:02.113Z,16.20
2022-07-31T00:40:52.724Z,16.10
2022-07-31T00:43:22.665Z,16.10
2022-07-31T00:45:58.505Z,16.10
2022-07-31T00:48:28.559Z,16.10
2022-07-31T00:50:56.811Z,16.10
2022-07-31T00:53:28.295Z,16.10
2022-07-31T00:55:59.894Z,16.20
2022-07-31T00:58:26.714Z,16.20
2022-07-31T01:00:53.577Z,16.10
2022-07-31T01:03:20.424Z,16.10
2022-07-31T01:05:47.259Z,16.10
2022-07-31T01:08:14.150Z,16.10
2022-07-31T01:10:43.309Z,16.10
2022-07-31T01:13:20.557Z,16.20
2022-07-31T01:15:48.960Z,16.20
2022-07-31T01:18:19.177Z,16.20
2022-07-31T01:20:49.578Z,16.20
2022-07-31T01:23:31.304Z,16.20
2022-07-31T01:26:52.339Z,16.20
2022-07-31T01:29:31.222Z,16.30
2022-07-31T01:32:03.504Z,16.30
2022-07-31T01:34:39.574Z,16.30
2022-07-31T01:37:17.559Z,16.30
2022-07-31T01:39:52.265Z,16.30
2022-07-31T01:42:26.888Z,16.30
2022-07-31T01:44:57.932Z,16.20
2022-07-31T01:47:29.453Z,16.30
2022-07-31T01:49:58.645Z,16.30
2022-07-31T01:52:29.344Z,16.30
2022-07-31T01:54:59.965Z,16.30
2022-07-31T01:57:30.313Z,16.20
2022-07-31T02:00:04.663Z,16.20
2022-07-31T02:02:34.370Z,16.10
2022-07-31T02:05:10.361Z,16.00
2022-07-31T02:07:40.172Z,16.00
2022-07-31T02:10:10.381Z,15.90
2022-07-31T02:12:40.487Z,15.80
2022-07-31T02:15:10.284Z,15.80
2022-07-31T02:17:40.953Z,15.70
2022-07-31T02:20:13.430Z,15.70
2022-07-31T02:22:42.763Z,15.70
2022-07-31T02:25:10.530Z,15.60
2022-07-31T02:27:57.529Z,15.60
2022-07-31T02:30:38.952Z,15.50
2022-07-31T02:33:15.501Z,15.50
2022-07-31T02:35:50.200Z,15.50
2022-07-31T02:38:24.303Z,15.60
2022-07-31T02:40:58.559Z,15.50
2022-07-31T02:43:28.782Z,15.50
2022-07-31T02:45:57.296Z,15.50
2022-07-31T02:48:26.048Z,15.40
2022-07-31T02:50:53.525Z,15.30
2022-07-31T02:53:21.792Z,15.30
2022-07-31T02:55:50.675Z,15.30
2022-07-31T02:58:17.529Z,15.20
2022-07-31T03:00:44.493Z,15.20
2022-07-31T03:03:13.371Z,15.20
2022-07-31T03:05:40.160Z,15.20
2022-07-31T03:08:06.907Z,15.20
2022-07-31T03:10:36.204Z,15.20
2022-07-31T03:13:07.411Z,15.10
2022-07-31T03:15:35.170Z,15.10
2022-07-31T03:18:02.516Z,15.00
2022-07-31T03:20:44.940Z,15.00
2022-07-31T03:23:13.353Z,15.00
2022-07-31T03:25:41.764Z,14.90
2022-07-31T03:28:09.140Z,14.90
2022-07-31T03:30:38.103Z,14.90
2022-07-31T03:33:05.139Z,14.90
2022-07-31T03:35:34.451Z,14.90
2022-07-31T03:38:40.857Z,14.90
2022-07-31T03:41:00.014Z,14.90
2022-07-31T03:43:29.394Z,14.90
2022-07-31T03:46:15.458Z,14.90
2022-07-31T03:48:43.193Z,14.90
2022-07-31T03:51:10.240Z,14.90
2022-07-31T03:53:39.871Z,14.90
2022-07-31T03:56:10.053Z,14.90
2022-07-31T03:58:38.677Z,14.80
2022-07-31T04:01:10.359Z,14.80
2022-07-31T04:03:39.873Z,14.80
2022-07-31T04:06:07.580Z,14.80
2022-07-31T04:08:34.564Z,14.70
2022-07-31T04:11:01.345Z,14.80
2022-07-31T04:13:30.537Z,14.80
2022-07-31T04:15:59.563Z,14.70
2022-07-31T04:18:28.408Z,14.70
2022-07-31T04:20:55.192Z,14.70
2022-07-31T04:23:22.287Z,14.70
2022-07-31T04:26:01.438Z,14.70
2022-07-31T04:28:28.266Z,14.80
2022-07-31T04:30:55.033Z,14.80
2022-07-31T04:33:21.911Z,14.80
2022-07-31T04:35:51.925Z,14.70
2022-07-31T04:38:23.115Z,14.80
2022-07-31T04:40:52.687Z,14.70
2022-07-31T04:43:21.714Z,14.80
2022-07-31T04:45:48.453Z,14.90
2022-07-31T04:48:15.236Z,14.80
2022-07-31T04:50:42.008Z,14.90
2022-07-31T04:53:08.720Z,14.90
2022-07-31T04:55:37.681Z,14.90
2022-07-31T04:58:04.519Z,15.00
2022-07-31T05:00:31.381Z,15.10
2022-07-31T05:02:58.300Z,15.30
2022-07-31T05:05:27.323Z,15.30
2022-07-31T05:07:56.452Z,15.40
2022-07-31T05:10:41.774Z,15.50
2022-07-31T05:13:08.489Z,15.50
2022-07-31T05:15:35.275Z,15.40
2022-07-31T05:18:02.007Z,15.50
2022-07-31T05:20:28.828Z,15.50
2022-07-31T05:22:58.089Z,15.60
2022-07-31T05:25:24.804Z,15.70
2022-07-31T05:27:53.929Z,15.80
2022-07-31T05:30:29.810Z,15.80
2022-07-31T05:32:58.377Z,15.90
2022-07-31T05:35:25.656Z,16.00
2022-07-31T05:37:52.404Z,16.00
2022-07-31T05:40:21.484Z,16.20
2022-07-31T05:42:48.237Z,16.30
2022-07-31T05:45:17.400Z,16.50
2022-07-31T05:47:44.176Z,16.70
2022-07-31T05:50:11.003Z,17.00
2022-07-31T05:52:40.157Z,17.20
2022-07-31T05:55:09.486Z,17.50
2022-07-31T05:57:36.222Z,17.90
2022-07-31T06:00:03.886Z,18.20
2022-07-31T06:02:31.126Z,18.40
2022-07-31T06:04:57.910Z,18.70
2022-07-31T06:07:26.930Z,18.80
2022-07-31T06:09:54.423Z,18.90
2022-07-31T06:12:21.248Z,19.00
2022-07-31T06:14:48.256Z,19.10
2022-07-31T06:17:15.040Z,19.20
2022-07-31T06:19:41.746Z,19.20
2022-07-31T06:22:11.109Z,19.50
2022-07-31T06:24:40.621Z,19.60
2022-07-31T06:27:09.335Z,19.70
2022-07-31T06:29:49.927Z,19.80
2022-07-31T06:32:16.729Z,19.90
2022-07-31T06:34:45.809Z,20.00
2022-07-31T06:37:14.220Z,20.20
2022-07-31T06:39:55.381Z,20.40
2022-07-31T06:42:23.554Z,20.50
2022-07-31T06:44:53.611Z,20.60
2022-07-31T06:47:27.112Z,20.60
2022-07-31T06:49:54.814Z,20.80
2022-07-31T06:52:24.142Z,21.00
2022-07-31T06:54:51.022Z,21.10
2022-07-31T06:57:17.796Z,21.30
2022-07-31T06:59:44.676Z,21.30
2022-07-31T07:02:14.390Z,21.30
2022-07-31T07:05:05.380Z,21.30
2022-07-31T07:07:31.998Z,21.40
2022-07-31T07:09:59.258Z,21.50
2022-07-31T07:12:26.819Z,21.70
2022-07-31T07:14:53.770Z,22.00
2022-07-31T07:17:27.173Z,22.10
2022-07-31T07:19:58.356Z,22.40
2022-07-31T07:22:31.095Z,22.50
2022-07-31T07:24:59.621Z,22.70
2022-07-31T07:27:26.415Z,23.00
2022-07-31T07:29:53.128Z,23.20
2022-07-31T07:32:19.849Z,23.20
2022-07-31T07:34:46.621Z,23.00
2022-07-31T07:37:13.372Z,23.00
2022-07-31T07:39:40.166Z,22.80
2022-07-31T07:42:07.372Z,22.70
2022-07-31T07:44:36.491Z,22.60
2022-07-31T07:47:05.821Z,22.60
2022-07-31T07:49:35.971Z,22.70
2022-07-31T07:52:03.182Z,23.00
2022-07-31T07:54:30.081Z,23.00
2022-07-31T07:56:56.952Z,22.80
2022-07-31T07:59:25.983Z,22.70
2022-07-31T08:01:52.775Z,22.70
2022-07-31T08:04:21.984Z,22.90
2022-07-31T08:06:50.886Z,23.20
2022-07-31T08:09:17.728Z,23.50
2022-07-31T08:11:44.865Z,23.80
2022-07-31T08:14:15.217Z,23.80
2022-07-31T08:16:42.787Z,24.10
2022-07-31T08:19:11.829Z,24.00
2022-07-31T08:21:41.058Z,24.00
2022-07-31T08:24:08.030Z,24.10
2022-07-31T08:26:53.118Z,24.40
2022-07-31T08:29:27.422Z,24.40
2022-07-31T08:31:55.474Z,24.70
2022-07-31T08:34:30.828Z,24.80
2022-07-31T08:37:51.742Z,24.80
2022-07-31T08:39:53.788Z,24.60
2022-07-31T08:42:20.623Z,24.70
2022-07-31T08:44:49.611Z,24.90
2022-07-31T08:47:19.416Z,25.00
2022-07-31T08:49:49.442Z,25.00
2022-07-31T08:52:24.834Z,24.90
2022-07-31T08:54:54.342Z,24.90
2022-07-31T08:57:21.435Z,24.80
2022-07-31T08:59:52.359Z,25.00
2022-07-31T09:02:19.330Z,25.00
2022-07-31T09:04:50.452Z,25.10
2022-07-31T09:07:18.970Z,25.20
2022-07-31T09:09:52.039Z,25.30
2022-07-31T09:12:33.395Z,25.30
2022-07-31T09:15:00.638Z,25.20
2022-07-31T09:17:37.040Z,25.40
2022-07-31T09:20:05.713Z,25.40
2022-07-31T09:22:37.057Z,25.40
2022-07-31T09:25:16.220Z,25.30
2022-07-31T09:27:47.457Z,25.30
2022-07-31T09:30:15.681Z,25.20
2022-07-31T09:32:45.986Z,25.30
2022-07-31T09:35:15.537Z,25.30
2022-07-31T09:37:47.090Z,25.20
2022-07-31T09:40:15.469Z,25.20
2022-07-31T09:42:55.594Z,25.30
2022-07-31T09:45:24.746Z,25.20
2022-07-31T09:48:15.276Z,25.00
2022-07-31T09:51:21.876Z,24.90
2022-07-31T09:53:54.734Z,24.90
2022-07-31T09:56:32.428Z,24.90
2022-07-31T09:58:59.825Z,24.90
2022-07-31T10:01:30.910Z,24.80
2022-07-31T10:04:04.429Z,24.80
2022-07-31T10:06:39.199Z,24.70
2022-07-31T10:09:07.034Z,24.70
2022-07-31T10:11:33.962Z,24.80
2022-07-31T10:14:03.385Z,24.80
2022-07-31T10:16:36.247Z,24.80
2022-07-31T10:19:12.843Z,24.80
2022-07-31T10:21:47.182Z,24.90
2022-07-31T10:24:16.737Z,25.00
2022-07-31T10:27:00.437Z,25.10
2022-07-31T10:29:32.597Z,25.20
2022-07-31T10:31:59.911Z,25.30
2022-07-31T10:34:27.218Z,25.40
2022-07-31T10:37:02.317Z,25.60
2022-07-31T10:39:52.179Z,25.80
2022-07-31T10:42:44.166Z,26.10
2022-07-31T10:45:13.234Z,26.40
2022-07-31T10:47:48.730Z,26.80
2022-07-31T10:50:23.967Z,27.00
2022-07-31T10:52:51.256Z,27.00
2022-07-31T10:55:22.363Z,26.70
2022-07-31T10:57:55.326Z,26.60
2022-07-31T11:00:28.544Z,26.40
2022-07-31T11:02:57.049Z,26.30
2022-07-31T11:05:25.856Z,26.30
2022-07-31T11:08:12.725Z,26.30
2022-07-31T11:10:50.878Z,26.30
2022-07-31T11:13:17.863Z,26.30
2022-07-31T11:15:47.903Z,26.40
2022-07-31T11:18:24.868Z,26.40
2022-07-31T11:21:13.575Z,26.40
2022-07-31T11:23:56.460Z,26.40
2022-07-31T11:26:33.714Z,26.30
2022-07-31T11:29:58.525Z,26.40
2022-07-31T11:31:55.274Z,26.40
2022-07-31T11:34:22.051Z,26.50
2022-07-31T11:36:51.448Z,26.70
2022-07-31T11:39:18.848Z,27.00
2022-07-31T11:41:54.551Z,27.40
2022-07-31T11:44:29.056Z,27.60
2022-07-31T11:46:55.765Z,27.90
2022-07-31T11:49:47.841Z,27.90
2022-07-31T11:52:30.960Z,28.00
2022-07-31T11:55:10.497Z,28.40
2022-07-31T11:57:51.746Z,28.60
2022-07-31T12:00:26.442Z,28.80
2022-07-31T12:02:57.906Z,28.80
2022-07-31T12:05:38.109Z,28.80
2022-07-31T12:08:07.879Z,28.80
2022-07-31T12:10:35.111Z,28.80
2022-07-31T12:13:02.589Z,28.90
2022-07-31T12:15:32.203Z,29.10
2022-07-31T12:18:03.388Z,28.90
2022-07-31T12:20:36.300Z,28.70
2022-07-31T12:23:05.448Z,28.60
2022-07-31T12:25:45.525Z,28.80
2022-07-31T12:28:17.165Z,28.90
2022-07-31T12:30:46.547Z,29.20
2022-07-31T12:33:17.174Z,29.50
2022-07-31T12:35:56.047Z,29.70
2022-07-31T12:38:45.220Z,29.60
2022-07-31T12:41:17.073Z,29.70
2022-07-31T12:43:52.504Z,29.50
2022-07-31T12:49:06.745Z,29.10
2022-07-31T12:51:45.545Z,29.10
2022-07-31T12:54:14.890Z,29.30
2022-07-31T12:56:42.189Z,29.50
2022-07-31T12:59:09.614Z,29.50
2022-07-31T13:01:36.864Z,29.30
2022-07-31T13:04:07.783Z,29.20
2022-07-31T13:06:35.155Z,29.40
2022-07-31T13:09:04.758Z,29.40
2022-07-31T13:11:45.941Z,29.30
2022-07-31T13:14:16.374Z,29.30
2022-07-31T13:16:43.600Z,29.50
2022-07-31T13:19:13.674Z,29.50
2022-07-31T13:21:49.042Z,29.60
2022-07-31T13:24:22.223Z,29.80
2022-07-31T13:26:49.988Z,29.80
2022-07-31T13:29:20.553Z,29.60
2022-07-31T13:31:47.338Z,29.60
2022-07-31T13:34:18.934Z,29.60
2022-07-31T13:36:45.622Z,29.70
2022-07-31T13:39:14.549Z,29.90
2022-07-31T13:41:41.883Z,30.00
2022-07-31T13:44:13.337Z,30.00
2022-07-31T13:46:40.195Z,29.90
2022-07-31T13:49:10.679Z,29.80
2022-07-31T13:51:38.759Z,29.80
2022-07-31T13:54:08.062Z,29.80
2022-07-31T13:56:43.056Z,29.90
2022-07-31T13:59:11.881Z,29.90
2022-07-31T14:02:04.537Z,29.80
2022-07-31T14:04:32.709Z,30.00
2022-07-31T14:07:05.930Z,30.40
2022-07-31T14:09:34.713Z,30.60
2022-07-31T14:12:04.249Z,30.40
2022-07-31T14:14:31.589Z,30.20
2022-07-31T14:16:58.420Z,29.90
2022-07-31T14:19:27.444Z,29.60
2022-07-31T14:21:57.495Z,29.40
2022-07-31T14:24:25.547Z,29.50
2022-07-31T14:26:52.537Z,29.70
2022-07-31T14:29:22.361Z,29.80
2022-07-31T14:31:49.223Z,29.70
2022-07-31T14:34:18.346Z,29.60
2022-07-31T14:36:47.384Z,29.60
2022-07-31T14:39:18.869Z,29.70
2022-07-31T14:41:47.893Z,30.00
2022-07-31T14:44:21.179Z,30.20
2022-07-31T14:46:50.135Z,30.40
2022-07-31T14:49:16.857Z,30.40
2022-07-31T14:51:43.605Z,30.30
2022-07-31T14:54:12.781Z,30.40
2022-07-31T14:59:29.545Z,30.00
2022-07-31T15:01:56.889Z,30.10
2022-07-31T15:04:26.087Z,30.10
2022-07-31T15:07:13.119Z,30.30
2022-07-31T15:09:44.344Z,30.30
2022-07-31T15:12:16.660Z,30.10
2022-07-31T15:14:45.970Z,30.10
2022-07-31T15:17:14.945Z,30.30
2022-07-31T15:19:41.781Z,30.30
2022-07-31T15:22:16.140Z,30.10
2022-07-31T15:24:48.152Z,30.00
2022-07-31T15:27:18.905Z,30.00
2022-07-31T15:30:04.088Z,30.10
2022-07-31T15:32:39.053Z,30.10
2022-07-31T15:35:08.534Z,30.10
2022-07-31T15:37:40.317Z,30.00
2022-07-31T15:40:09.845Z,29.80
2022-07-31T15:42:40.051Z,29.60
2022-07-31T15:45:13.905Z,29.60
2022-07-31T15:47:44.123Z,29.70
2022-07-31T15:50:15.664Z,29.90
2022-07-31T15:52:42.670Z,31.00
2022-07-31T15:55:10.118Z,32.40
2022-07-31T15:57:42.079Z,34.00
2022-07-31T16:00:14.004Z,35.50
2022-07-31T16:02:44.784Z,36.70
2022-07-31T16:05:21.694Z,38.10
2022-07-31T16:08:32.161Z,38.40
2022-07-31T16:10:38.591Z,38.80
2022-07-31T16:13:05.351Z,37.30
2022-07-31T16:15:37.376Z,36.80
2022-07-31T16:18:05.541Z,37.70
2022-07-31T16:20:32.372Z,37.10
2022-07-31T16:23:03.245Z,37.40
2022-07-31T16:25:32.016Z,36.60
2022-07-31T16:28:01.392Z,35.30
2022-07-31T16:30:28.179Z,34.00
2022-07-31T16:32:55.049Z,33.10
2022-07-31T16:35:22.184Z,32.60
2022-07-31T16:37:53.709Z,32.30
2022-07-31T16:40:28.751Z,32.30
2022-07-31T16:43:48.266Z,33.90
2022-07-31T16:45:57.431Z,35.10
2022-07-31T16:48:24.637Z,37.20
2022-07-31T16:50:56.214Z,37.50
2022-07-31T16:54:10.617Z,35.80
2022-07-31T16:56:14.363Z,34.50
2022-07-31T16:58:44.135Z,33.50
2022-07-31T17:01:56.970Z,32.60
2022-07-31T17:04:03.799Z,32.70
2022-07-31T17:06:34.647Z,33.10
2022-07-31T17:09:16.241Z,34.60
2022-07-31T17:11:55.591Z,36.30
2022-07-31T17:14:25.501Z,37.20
2022-07-31T17:16:53.915Z,37.00
2022-07-31T17:19:36.140Z,36.30
2022-07-31T17:22:11.114Z,37.30
2022-07-31T17:24:38.735Z,37.80
2022-07-31T17:27:08.290Z,36.50
2022-07-31T17:29:38.424Z,35.00
2022-07-31T17:32:08.053Z,33.70
2022-07-31T17:34:38.552Z,33.30
2022-07-31T17:37:06.925Z,32.80
2022-07-31T17:40:41.812Z,32.00
2022-07-31T17:43:05.852Z,31.40
2022-07-31T17:45:37.193Z,31.00
2022-07-31T17:48:20.078Z,30.80
2022-07-31T17:50:50.261Z,30.20
2022-07-31T17:53:20.486Z,29.80
2022-07-31T17:55:49.397Z,29.50
2022-07-31T17:58:16.329Z,29.20
2022-07-31T18:00:43.162Z,29.10
2022-07-31T18:03:09.897Z,28.90
2022-07-31T18:05:37.670Z,28.70
2022-07-31T18:08:04.794Z,28.60
2022-07-31T18:10:53.427Z,28.40
2022-07-31T18:13:22.632Z,28.20
2022-07-31T18:15:49.436Z,28.00
2022-07-31T18:22:22.354Z,27.60
2022-07-31T18:24:49.308Z,27.40
2022-07-31T18:27:35.118Z,27.20
2022-07-31T18:30:14.900Z,27.00
2022-07-31T18:32:42.907Z,26.90
2022-07-31T18:35:13.614Z,26.70
2022-07-31T18:37:40.456Z,26.60
2022-07-31T18:40:10.292Z,26.50
2022-07-31T18:42:39.222Z,26.30
2022-07-31T18:45:06.825Z,26.20
2022-07-31T18:47:35.858Z,26.10
2022-07-31T18:51:01.207Z,26.00
2022-07-31T18:52:51.991Z,25.90
2022-07-31T18:55:18.782Z,25.90
2022-07-31T18:57:45.617Z,25.80
2022-07-31T19:00:12.834Z,25.70
2022-07-31T19:02:41.850Z,25.60
2022-07-31T19:07:59.924Z,25.40
2022-07-31T19:10:29.311Z,25.30
2022-07-31T19:12:58.633Z,25.20
2022-07-31T19:15:36.305Z,25.10
2022-07-31T19:18:07.822Z,25.00
2022-07-31T19:20:51.735Z,24.90
2022-07-31T19:23:26.764Z,24.80
2022-07-31T19:26:03.126Z,24.70
2022-07-31T19:28:44.898Z,24.60
2022-07-31T19:31:26.423Z,24.50
2022-07-31T19:33:53.510Z,24.40
2022-07-31T19:36:20.319Z,24.20
2022-07-31T19:38:52.726Z,24.20
2022-07-31T19:41:21.841Z,24.10
2022-07-31T19:43:51.742Z,24.00
2022-07-31T19:46:18.656Z,23.90
2022-07-31T19:48:46.297Z,23.90
2022-07-31T19:51:33.064Z,23.80
2022-07-31T19:54:02.789Z,23.70
2022-07-31T19:56:29.579Z,23.70
2022-07-31T19:58:56.348Z,23.60
2022-07-31T20:01:23.273Z,23.50
2022-07-31T20:03:50.764Z,23.30
2022-07-31T20:06:17.600Z,23.30
2022-07-31T20:08:44.547Z,23.20
2022-07-31T20:11:11.395Z,23.00
2022-07-31T20:13:40.287Z,23.00
2022-07-31T20:16:07.047Z,22.90
2022-07-31T20:18:33.923Z,22.90
2022-07-31T20:21:09.248Z,22.70
2022-07-31T20:23:38.798Z,22.70
2022-07-31T20:26:07.408Z,22.60
2022-07-31T20:28:34.490Z,22.50
2022-07-31T20:31:03.485Z,22.40
2022-07-31T20:33:31.435Z,22.30
2022-07-31T20:35:58.357Z,22.20
2022-07-31T20:38:27.267Z,22.10
2022-07-31T20:40:57.191Z,22.10
2022-07-31T20:43:25.256Z,22.00
2022-07-31T20:45:53.229Z,22.00
2022-07-31T20:48:24.644Z,21.90
2022-07-31T20:50:51.959Z,21.80
2022-07-31T20:53:22.081Z,21.80
2022-07-31T20:55:51.159Z,21.70
2022-07-31T20:58:19.151Z,21.60
2022-07-31T21:00:48.861Z,21.50
2022-07-31T21:03:16.531Z,21.50
2022-07-31T21:05:46.860Z,21.40
2022-07-31T21:08:13.797Z,21.30
2022-07-31T21:10:40.598Z,21.20
2022-07-31T21:13:09.924Z,21.20
2022-07-31T21:15:43.274Z,21.10
2022-07-31T21:18:18.303Z,21.00
2022-07-31T21:20:51.494Z,21.00
2022-07-31T21:23:24.084Z,21.00
2022-07-31T21:26:02.161Z,21.00
2022-07-31T21:28:31.698Z,20.90
2022-07-31T21:31:01.039Z,20.80
2022-07-31T21:33:28.389Z,20.70
2022-07-31T21:35:55.852Z,20.60
2022-07-31T21:38:25.491Z,20.50
2022-07-31T21:40:53.904Z,20.40
2022-07-31T21:43:23.938Z,20.40
2022-07-31T21:45:57.942Z,20.40
2022-07-31T21:48:35.685Z,20.30
2022-07-31T21:51:02.732Z,20.30
2022-07-31T21:53:29.836Z,20.30
2022-07-31T21:56:01.918Z,20.10
2022-07-31T21:58:30.917Z,20.10
2022-07-31T22:00:57.779Z,20.10
2022-07-31T22:03:26.713Z,19.90
2022-07-31T22:06:11.987Z,19.90
2022-07-31T22:08:38.863Z,19.90
2022-07-31T22:11:05.673Z,19.80
2022-07-31T22:13:32.442Z,19.80
2022-07-31T22:16:02.150Z,19.80
2022-07-31T22:18:35.664Z,19.80
2022-07-31T22:21:09.294Z,19.70
2022-07-31T22:23:36.437Z,19.70
2022-07-31T22:26:03.946Z,19.70
2022-07-31T22:28:31.330Z,19.60
2022-07-31T22:30:58.430Z,19.50
2022-07-31T22:33:28.382Z,19.40
2022-07-31T22:36:02.570Z,19.40
2022-07-31T22:38:32.000Z,19.30
2022-07-31T22:40:59.590Z,19.20
2022-07-31T22:44:10.035Z,19.20
2022-07-31T22:46:17.246Z,19.20
2022-07-31T22:48:48.704Z,19.20
2022-07-31T22:51:20.214Z,19.10
2022-07-31T22:53:50.260Z,19.00
2022-07-31T22:56:17.761Z,18.90
2022-07-31T22:58:46.860Z,18.90
2022-07-31T23:01:13.675Z,18.80
2022-07-31T23:03:40.411Z,18.80
2022-07-31T23:06:31.145Z,18.70
2022-07-31T23:08:57.653Z,18.70
2022-07-31T23:11:24.820Z,18.60
2022-07-31T23:13:54.288Z,18.50
2022-07-31T23:16:21.179Z,18.50
2022-07-31T23:18:51.068Z,18.40
2022-07-31T23:21:19.133Z,18.40
2022-07-31T23:23:49.491Z,18.40
2022-07-31T23:26:20.229Z,18.40
2022-07-31T23:28:47.897Z,18.30
2022-07-31T23:31:17.330Z,18.30
2022-07-31T23:33:47.676Z,18.20
2022-07-31T23:36:17.656Z,18.20
2022-07-31T23:38:45.064Z,18.20
2022-07-31T23:41:12.705Z,18.20
2022-07-31T23:43:39.677Z,18.20
2022-07-31T23:46:06.620Z,18.10
2022-07-31T23:48:35.929Z,18.10
2022-07-31T23:51:05.194Z,18.00
2022-07-31T23:53:34.080Z,18.00
2022-07-31T23:56:03.101Z,17.90
2022-07-31T23:58:31.463Z,17.90
